Navigator Spirit — C6WL4 — position and weather

sailwx.info

Track history (hours):
 
Tides and Currents Weather Stations Pressure Air Temp Water Temp Dewpoint Dewpoint Depression Visibility Wind Speed Wind Dir Waves Ship Positions

Navigator Spirit

Last reported at 2014-Oct-12 00:23 UTC. Time now 2014-Oct-25 10:14 UTC.
Position N 52°11' W 005°46'.
Warning: this ship's position is 13 days out of date.

Length 241 m; draft 8.4 m.

Type: Tanker. MMSI: 309198000.

Date/timePositionNaut miles runAvg speedWind from/ knotsBaromVisibWave heightAir tempDewpointWater temp
2014-Oct-12 00:23N 52°11' W 005°46'911.2
2014-Oct-11 23:32N 52°20' W 005°40'9411.4
2014-Oct-11 15:15N 53°34' W 004°03'1214.8
2014-Oct-11 14:28N 53°34' W 003°43'1314.2
2014-Oct-11 13:33N 53°33' W 003°21'10 9.9
2014-Oct-11 12:33N 53°30' W 003°05'8 7.7
2014-Oct-11 11:33N 53°23' W 002°60'0 0.1
2014-Oct-11 10:25N 53°23' W 003°00'0 0.0
2014-Oct-11 07:13N 53°23' W 003°00'0 0.0
2014-Oct-11 06:31N 53°23' W 003°00'0 0.0
2014-Oct-11 05:31N 53°23' W 003°00'0 0.0
2014-Oct-11 04:31N 53°23' W 003°00'0 0.0
2014-Oct-11 02:07N 53°23' W 003°00'0 0.0
2014-Oct-11 01:25N 53°23' W 003°00'0 0.0
2014-Oct-11 00:25N 53°23' W 003°00'0 0.0
2014-Oct-10 23:31N 53°23' W 003°00'0 0.0
2014-Oct-10 22:19N 53°23' W 003°00'0 0.0
2014-Oct-10 21:31N 53°23' W 003°00'0 0.0
2014-Oct-10 18:31N 53°23' W 003°00'0 0.0
2014-Oct-10 17:13N 53°23' W 003°00'0 0.0
2014-Oct-10 16:31N 53°23' W 003°00'0 0.0
2014-Oct-10 15:31N 53°23' W 003°00'0 0.0
2014-Oct-10 14:13N 53°23' W 003°00'0 0.0
2014-Oct-10 13:25N 53°23' W 003°00'0 0.0
2014-Oct-10 12:31N 53°23' W 003°00'0 0.0
2014-Oct-10 11:31N 53°23' W 003°00'0 0.0
2014-Oct-10 10:31N 53°23' W 003°00'0 0.0
2014-Oct-10 09:31N 53°23' W 003°00'0 0.0
2014-Oct-10 03:31N 53°23' W 003°00'0 0.0
2014-Oct-10 02:31N 53°23' W 003°00'0 0.0
2014-Oct-10 01:31N 53°23' W 003°00'0 0.0
2014-Oct-10 00:30N 53°23' W 003°00'1 1.0
2014-Oct-09 23:33N 53°24' W 003°00'7 6.9
2014-Oct-09 22:33N 53°30' W 003°06'9 9.2
2014-Oct-09 21:33N 53°31' W 003°21'1413.5
2014-Oct-09 20:32N 53°31' W 003°44'  
2014-Oct-06 04:09N 37°03' W 009°52'712.2
2014-Oct-06 03:33N 36°56' W 009°50'21810.8
2014-Oct-05 07:22N 35°60' W 005°27'911.0
2014-Oct-05 06:33N 36°02' W 005°17'  
Track history (hours):
 
Tides and Currents Weather Stations Pressure Air Temp Water Temp Dewpoint Dewpoint Depression Visibility Wind Speed Wind Dir Waves Ship Positions

Navigator Spirit

Last reported at 2014-Oct-12 00:23 UTC. Time now 2014-Oct-25 10:14 UTC.
Position N 52°11' W 005°46'.
Warning: this ship's position is 13 days out of date.

Length 241 m; draft 8.4 m.

Type: Tanker. MMSI: 309198000.

Date/timePositionNaut miles runAvg speedWind from/ knotsBaromVisibWave heightAir tempDewpointWater temp
2014-Oct-12 00:23N 52°11' W 005°46'911.2
2014-Oct-11 23:32N 52°20' W 005°40'9411.4
2014-Oct-11 15:15N 53°34' W 004°03'1214.8
2014-Oct-11 14:28N 53°34' W 003°43'1314.2
2014-Oct-11 13:33N 53°33' W 003°21'10 9.9
2014-Oct-11 12:33N 53°30' W 003°05'8 7.7
2014-Oct-11 11:33N 53°23' W 002°60'0 0.1
2014-Oct-11 10:25N 53°23' W 003°00'0 0.0
2014-Oct-11 07:13N 53°23' W 003°00'0 0.0
2014-Oct-11 06:31N 53°23' W 003°00'0 0.0
2014-Oct-11 05:31N 53°23' W 003°00'0 0.0
2014-Oct-11 04:31N 53°23' W 003°00'0 0.0
2014-Oct-11 02:07N 53°23' W 003°00'0 0.0
2014-Oct-11 01:25N 53°23' W 003°00'0 0.0
2014-Oct-11 00:25N 53°23' W 003°00'0 0.0
2014-Oct-10 23:31N 53°23' W 003°00'0 0.0
2014-Oct-10 22:19N 53°23' W 003°00'0 0.0
2014-Oct-10 21:31N 53°23' W 003°00'0 0.0
2014-Oct-10 18:31N 53°23' W 003°00'0 0.0
2014-Oct-10 17:13N 53°23' W 003°00'0 0.0
2014-Oct-10 16:31N 53°23' W 003°00'0 0.0
2014-Oct-10 15:31N 53°23' W 003°00'0 0.0
2014-Oct-10 14:13N 53°23' W 003°00'0 0.0
2014-Oct-10 13:25N 53°23' W 003°00'0 0.0
2014-Oct-10 12:31N 53°23' W 003°00'0 0.0
2014-Oct-10 11:31N 53°23' W 003°00'0 0.0
2014-Oct-10 10:31N 53°23' W 003°00'0 0.0
2014-Oct-10 09:31N 53°23' W 003°00'0 0.0
2014-Oct-10 03:31N 53°23' W 003°00'0 0.0
2014-Oct-10 02:31N 53°23' W 003°00'0 0.0
2014-Oct-10 01:31N 53°23' W 003°00'0 0.0
2014-Oct-10 00:30N 53°23' W 003°00'1 1.0
2014-Oct-09 23:33N 53°24' W 003°00'7 6.9
2014-Oct-09 22:33N 53°30' W 003°06'9 9.2
2014-Oct-09 21:33N 53°31' W 003°21'1413.5
2014-Oct-09 20:32N 53°31' W 003°44'  
2014-Oct-06 04:09N 37°03' W 009°52'712.2
2014-Oct-06 03:33N 36°56' W 009°50'21810.8
2014-Oct-05 07:22N 35°60' W 005°27'911.0
2014-Oct-05 06:33N 36°02' W 005°17'  

Dump ship's entire track history